createdAt,value
2022-08-23T00:03:59.943Z,10.00
2022-08-23T00:09:23.704Z,10.10
2022-08-23T00:14:49.305Z,9.90
2022-08-23T00:20:14.962Z,10.70
2022-08-23T00:25:36.821Z,8.77
2022-08-23T00:30:59.589Z,9.80
2022-08-23T00:36:21.405Z,10.20
2022-08-23T00:41:44.201Z,10.15
2022-08-23T00:47:07.774Z,9.18
2022-08-23T00:52:38.070Z,10.15
2022-08-23T00:58:01.541Z,9.93
2022-08-23T01:03:25.947Z,11.50
2022-08-23T01:08:54.703Z,9.07
2022-08-23T01:14:19.654Z,10.52
2022-08-23T01:19:48.595Z,10.38
2022-08-23T01:25:14.244Z,11.25
2022-08-23T01:30:36.341Z,10.43
2022-08-23T01:36:00.991Z,12.27
2022-08-23T01:41:26.017Z,11.48
2022-08-23T01:46:47.871Z,11.75
2022-08-23T01:52:09.699Z,13.02
2022-08-23T01:57:33.797Z,11.88
2022-08-23T02:02:55.944Z,11.45
2022-08-23T02:08:17.805Z,9.23
2022-08-23T02:13:39.637Z,8.57
2022-08-23T02:19:03.028Z,10.27
2022-08-23T02:24:25.775Z,11.90
2022-08-23T02:29:47.717Z,12.18
2022-08-23T02:35:09.624Z,13.45
2022-08-23T02:40:31.468Z,12.95
2022-08-23T02:45:53.300Z,12.90
2022-08-23T02:51:15.830Z,11.93
2022-08-23T02:56:37.706Z,11.85
2022-08-23T03:01:59.604Z,11.65
2022-08-23T03:07:21.488Z,12.98
2022-08-23T03:12:43.320Z,12.10
2022-08-23T03:18:05.982Z,13.48
2022-08-23T03:23:28.444Z,11.65
2022-08-23T03:28:50.346Z,12.82
2022-08-23T03:34:12.393Z,12.48
2022-08-23T03:39:34.307Z,12.75
2022-08-23T03:44:56.931Z,13.10
2022-08-23T03:50:24.483Z,13.23
2022-08-23T03:55:46.707Z,13.10
2022-08-23T04:01:08.525Z,12.50
2022-08-23T04:06:30.352Z,11.90
2022-08-23T04:11:52.155Z,11.60
2022-08-23T04:17:15.109Z,10.18
2022-08-23T04:22:37.011Z,9.70
2022-08-23T04:27:59.659Z,10.80
2022-08-23T04:33:22.252Z,8.73
2022-08-23T04:38:44.092Z,8.68
2022-08-23T04:44:05.985Z,9.07
2022-08-23T04:49:27.776Z,9.07
2022-08-23T04:54:49.649Z,10.38
2022-08-23T05:00:13.059Z,9.18
2022-08-23T05:05:34.880Z,9.60
2022-08-23T05:11:00.429Z,8.82
2022-08-23T05:16:22.315Z,8.60
2022-08-23T05:21:44.363Z,8.40
2022-08-23T05:27:07.877Z,8.95
2022-08-23T05:32:33.650Z,8.32
2022-08-23T05:37:55.714Z,8.90
2022-08-23T05:43:17.895Z,8.38
2022-08-23T05:48:43.241Z,8.07
2022-08-23T05:54:08.010Z,8.30
2022-08-23T05:59:30.798Z,8.25
2022-08-23T06:04:57.159Z,8.75
2022-08-23T06:10:19.637Z,8.55
2022-08-23T06:15:44.920Z,8.85
2022-08-23T06:21:09.197Z,8.48
2022-08-23T06:26:34.516Z,8.23
2022-08-23T06:31:56.348Z,8.85
2022-08-23T06:37:18.252Z,8.57
2022-08-23T06:42:40.580Z,7.35
2022-08-23T06:48:02.715Z,8.40
2022-08-23T06:53:24.712Z,7.65
2022-08-23T06:58:46.534Z,7.57
2022-08-23T07:04:11.084Z,6.88
2022-08-23T07:09:33.526Z,8.35
2022-08-23T07:14:55.355Z,8.20
2022-08-23T07:20:17.375Z,8.25
2022-08-23T07:25:42.251Z,7.90
2022-08-23T07:31:12.377Z,7.70
2022-08-23T07:36:37.857Z,7.40
2022-08-23T07:42:01.359Z,7.25
2022-08-23T07:47:48.249Z,7.88
2022-08-23T07:53:11.984Z,7.60
2022-08-23T07:58:34.147Z,6.93
2022-08-23T08:03:58.720Z,8.20
2022-08-23T08:09:20.584Z,6.95
2022-08-23T08:14:42.413Z,6.55
2022-08-23T08:20:04.985Z,6.90
2022-08-23T08:25:26.924Z,7.80
2022-08-23T08:30:48.726Z,8.27
2022-08-23T08:36:36.177Z,7.78
2022-08-23T08:42:05.276Z,7.32
2022-08-23T08:47:40.852Z,7.70
2022-08-23T08:53:13.069Z,7.25
2022-08-23T08:58:49.220Z,7.38
2022-08-23T09:04:11.502Z,8.25
2022-08-23T09:10:05.195Z,7.22
2022-08-23T09:15:40.497Z,7.05
2022-08-23T09:21:05.520Z,8.05
2022-08-23T09:26:30.845Z,8.68
2022-08-23T09:37:18.596Z,7.63
2022-08-23T09:42:42.051Z,7.68
2022-08-23T09:48:05.711Z,7.65
2022-08-23T09:53:27.564Z,7.80
2022-08-23T09:58:50.073Z,8.30
2022-08-23T10:04:21.542Z,8.60
2022-08-23T10:09:43.393Z,7.43
2022-08-23T10:15:05.672Z,7.45
2022-08-23T10:20:50.807Z,6.60
2022-08-23T10:26:25.143Z,6.10
2022-08-23T10:32:02.373Z,6.57
2022-08-23T10:37:33.143Z,4.97
2022-08-23T10:43:19.785Z,5.78
2022-08-23T10:48:52.415Z,5.13
2022-08-23T10:54:30.817Z,5.53
2022-08-23T10:59:53.111Z,4.55
2022-08-23T11:05:26.356Z,5.15
2022-08-23T11:10:56.029Z,5.50
2022-08-23T11:16:30.554Z,5.47
2022-08-23T11:22:14.287Z,6.35
2022-08-23T11:27:41.524Z,5.20
2022-08-23T11:33:34.419Z,5.63
2022-08-23T11:38:56.190Z,4.85
2022-08-23T11:44:24.106Z,6.03
2022-08-23T11:50:06.087Z,5.43
2022-08-23T11:55:49.226Z,5.65
2022-08-23T12:01:13.888Z,5.63
2022-08-23T12:06:51.267Z,6.70
2022-08-23T12:12:13.231Z,6.05
2022-08-23T12:17:35.005Z,6.30
2022-08-23T12:23:15.548Z,6.50
2022-08-23T12:28:43.728Z,5.90
2022-08-23T12:34:20.874Z,6.20
2022-08-23T12:39:52.751Z,6.85
2022-08-23T12:45:22.916Z,6.40
2022-08-23T12:50:51.686Z,6.40
2022-08-23T12:56:31.561Z,7.05
2022-08-23T13:01:54.579Z,6.50
2022-08-23T13:07:22.420Z,7.05
2022-08-23T13:12:44.763Z,7.45
2022-08-23T13:18:06.869Z,6.40
2022-08-23T13:23:28.995Z,7.38
2022-08-23T13:29:06.371Z,6.78
2022-08-23T13:34:47.198Z,7.20
2022-08-23T13:40:18.435Z,7.25
2022-08-23T13:45:51.268Z,6.63
2022-08-23T13:51:28.404Z,6.35
2022-08-23T13:56:53.809Z,7.28
2022-08-23T14:07:38.024Z,7.97
2022-08-23T14:13:00.344Z,7.22
2022-08-23T14:18:22.308Z,8.95
2022-08-23T14:23:44.146Z,7.28
2022-08-23T14:29:05.942Z,7.72
2022-08-23T14:34:29.478Z,10.32
2022-08-23T14:39:51.526Z,7.80
2022-08-23T14:45:15.648Z,7.85
2022-08-23T14:50:38.671Z,8.25
2022-08-23T14:56:20.264Z,9.10
2022-08-23T15:01:42.583Z,7.70
2022-08-23T15:07:20.979Z,9.23
2022-08-23T15:13:12.918Z,8.13
2022-08-23T15:18:25.434Z,8.73
2022-08-23T15:23:47.477Z,8.98
2022-08-23T15:29:09.278Z,8.35
2022-08-23T15:34:33.347Z,10.07
2022-08-23T15:39:57.521Z,9.52
2022-08-23T15:45:19.529Z,10.27
2022-08-23T15:50:44.656Z,8.98
2022-08-23T15:56:13.231Z,9.30
2022-08-23T16:01:35.108Z,9.57
2022-08-23T16:06:58.209Z,7.72
2022-08-23T16:12:20.070Z,10.10
2022-08-23T16:17:41.982Z,10.48
2022-08-23T16:23:04.200Z,8.98
2022-08-23T16:28:26.146Z,9.70
2022-08-23T16:33:48.299Z,9.25
2022-08-23T16:39:11.265Z,7.28
2022-08-23T16:44:34.324Z,5.55
2022-08-23T16:49:56.179Z,6.32
2022-08-23T16:55:18.138Z,5.70
2022-08-23T17:00:40.468Z,6.03
2022-08-23T17:06:02.311Z,17.73
2022-08-23T17:11:24.187Z,6.15
2022-08-23T17:16:52.032Z,4.90
2022-08-23T17:22:13.969Z,5.45
2022-08-23T17:27:37.048Z,5.03
2022-08-23T17:32:59.349Z,5.10
2022-08-23T17:38:21.223Z,5.78
2022-08-23T17:43:43.022Z,5.35
2022-08-23T17:49:06.573Z,4.93
2022-08-23T17:54:28.408Z,6.22
2022-08-23T17:59:50.276Z,6.00
2022-08-23T18:05:12.509Z,5.50
2022-08-23T18:10:34.882Z,5.15
2022-08-23T18:15:56.751Z,6.45
2022-08-23T18:21:18.592Z,6.07
2022-08-23T18:26:42.997Z,6.30
2022-08-23T18:32:06.964Z,5.93
2022-08-23T18:37:28.904Z,5.90
2022-08-23T18:42:50.973Z,6.40
2022-08-23T18:48:12.981Z,5.10
2022-08-23T18:53:35.465Z,5.20
2022-08-23T18:58:57.295Z,5.22
2022-08-23T19:04:19.253Z,5.15
2022-08-23T19:09:41.295Z,5.25
2022-08-23T19:15:04.043Z,5.10
2022-08-23T19:20:25.934Z,5.10
2022-08-23T19:25:48.389Z,4.65
2022-08-23T19:31:10.352Z,5.38
2022-08-23T19:36:46.249Z,4.47
2022-08-23T19:42:11.699Z,4.88
2022-08-23T19:47:34.303Z,4.68
2022-08-23T19:52:58.528Z,4.68
2022-08-23T19:58:20.374Z,5.00
2022-08-23T20:03:42.219Z,4.80
2022-08-23T20:09:05.684Z,4.75
2022-08-23T20:14:29.774Z,5.93
2022-08-23T20:19:51.599Z,4.90
2022-08-23T20:25:13.607Z,7.82
2022-08-23T20:30:36.081Z,4.97
2022-08-23T20:35:57.871Z,5.13
2022-08-23T20:41:20.380Z,4.18
2022-08-23T20:46:42.711Z,6.07
2022-08-23T20:52:05.922Z,8.07
2022-08-23T20:57:28.556Z,8.18
2022-08-23T21:02:53.861Z,5.30
2022-08-23T21:08:16.570Z,5.57
2022-08-23T21:13:38.998Z,8.77
2022-08-23T21:19:01.386Z,5.55
2022-08-23T21:24:23.226Z,5.82
2022-08-23T21:29:45.044Z,5.50
2022-08-23T21:35:07.394Z,4.82
2022-08-23T21:40:30.462Z,6.43
2022-08-23T21:45:52.389Z,6.30
2022-08-23T21:51:14.325Z,5.53
2022-08-23T21:56:37.271Z,5.30
2022-08-23T22:01:59.107Z,5.20
2022-08-23T22:07:21.091Z,4.88
2022-08-23T22:12:43.138Z,4.32
2022-08-23T22:18:05.678Z,4.93
2022-08-23T22:23:29.561Z,5.93
2022-08-23T22:28:51.357Z,4.45
2022-08-23T22:34:13.235Z,5.25
2022-08-23T22:39:35.127Z,4.90
2022-08-23T22:44:56.954Z,5.13
2022-08-23T22:50:18.831Z,4.80
2022-08-23T22:55:41.047Z,5.25
2022-08-23T23:01:05.710Z,4.97
2022-08-23T23:06:33.104Z,5.18
2022-08-23T23:11:54.998Z,4.75
2022-08-23T23:17:16.802Z,4.63
2022-08-23T23:22:38.653Z,5.88
2022-08-23T23:28:01.110Z,4.70
2022-08-23T23:39:51.382Z,5.78
2022-08-23T23:45:13.926Z,4.80
2022-08-23T23:50:39.555Z,5.20
2022-08-23T23:56:09.773Z,4.68
